Time;durP1;ratioP1;P1;durP2;ratioP2;P2;SDS_P1;SDS_P2;PMS_P1;PMS_P2;Temp;Humidity;BMP_temperature;BMP_pressure;BME280_temperature;BME280_humidity;BME280_pressure;Samples;Min_cycle;Max_cycle;Signal;HPM_P1;HPM_P2
2022/05/10 00:00:46;;;;;;;18.90;14.45;;;;;;;;;;5022954;28;20289;-69
2022/05/10 00:03:11;;;;;;;19.20;14.60;;;;;;;;;;5028243;28;20292;-70
2022/05/10 00:05:38;;;;;;;16.65;14.75;;;;;;;;;;5026562;28;20221;-69
2022/05/10 00:08:04;;;;;;;19.00;14.23;;;;;;;;;;5030089;28;20182;-70
2022/05/10 00:10:29;;;;;;;20.85;14.55;;;;;;;;;;5035706;28;20178;-69
2022/05/10 00:12:55;;;;;;;16.05;14.35;;;;;;;;;;5029479;28;20506;-69
2022/05/10 00:15:20;;;;;;;18.77;15.45;;;;;;;;;;5029306;28;20261;-70
2022/05/10 00:17:47;;;;;;;17.25;14.05;;;;;;;;;;5032468;28;20178;-70
2022/05/10 00:20:13;;;;;;;16.63;14.18;;;;;;;;;;5032623;28;20174;-69
2022/05/10 00:22:39;;;;;;;20.27;15.80;;;;;;;;;;5029043;28;20583;-70
2022/05/10 00:25:05;;;;;;;23.35;15.48;;;;;;;;;;5016882;28;20183;-69
2022/05/10 00:27:30;;;;;;;21.63;15.48;;;;;;;;;;5017728;28;20263;-70
2022/05/10 00:29:56;;;;;;;19.27;15.13;;;;;;;;;;5019142;28;20227;-70
2022/05/10 00:32:22;;;;;;;23.55;15.80;;;;;;;;;;5030478;28;20685;-69
2022/05/10 00:34:47;;;;;;;17.50;14.43;;;;;;;;;;5032247;28;20182;-70
2022/05/10 00:37:13;;;;;;;20.10;13.40;;;;;;;;;;5035996;28;20171;-69
2022/05/10 00:39:38;;;;;;;19.67;14.60;;;;;;;;;;5025420;28;20282;-70
2022/05/10 00:42:24;;;;;;;18.30;14.27;;;;;;;;;;5030326;28;20272;-70
2022/05/10 00:44:52;;;;;;;20.27;15.07;;;;;;;;;;5021040;28;20218;-70
2022/05/10 00:47:21;;;;;;;20.00;14.43;;;;;;;;;;5022367;28;20179;-71
2022/05/10 00:49:50;;;;;;;22.37;16.73;;;;;;;;;;5028667;28;20691;-70
2022/05/10 00:52:18;;;;;;;23.13;16.83;;;;;;;;;;5032073;28;20206;-71
2022/05/10 00:54:49;;;;;;;22.97;16.57;;;;;;;;;;5031821;28;20193;-70
2022/05/10 00:57:29;;;;;;;20.63;15.43;;;;;;;;;;5030743;28;20209;-70
2022/05/10 01:00:06;;;;;;;19.80;15.97;;;;;;;;;;5028300;28;20706;-70
2022/05/10 01:02:44;;;;;;;21.23;14.90;;;;;;;;;;5030086;28;20780;-70
2022/05/10 01:05:27;;;;;;;19.60;15.00;;;;;;;;;;5024443;28;20530;-70
2022/05/10 01:07:58;;;;;;;17.60;14.40;;;;;;;;;;5022779;28;20185;-70
2022/05/10 01:10:27;;;;;;;24.60;15.90;;;;;;;;;;5026267;28;20179;-70
2022/05/10 01:12:56;;;;;;;24.07;16.70;;;;;;;;;;5026573;28;20722;-70
2022/05/10 01:15:25;;;;;;;19.97;14.97;;;;;;;;;;5027842;28;20670;-71
2022/05/10 01:17:57;;;;;;;19.30;14.93;;;;;;;;;;5026748;28;20995;-71
2022/05/10 01:20:42;;;;;;;18.33;15.10;;;;;;;;;;5033811;28;20186;-71
2022/05/10 01:23:27;;;;;;;15.63;14.03;;;;;;;;;;5024383;28;20258;-71
2022/05/10 01:25:53;;;;;;;20.70;15.30;;;;;;;;;;5021149;28;20185;-72
2022/05/10 01:28:26;;;;;;;21.40;15.00;;;;;;;;;;5018088;28;20186;-69
2022/05/10 01:30:51;;;;;;;19.63;13.57;;;;;;;;;;5026349;28;20447;-71
2022/05/10 01:33:31;;;;;;;18.90;14.03;;;;;;;;;;5028006;28;20564;-71
2022/05/10 01:36:03;;;;;;;20.87;16.50;;;;;;;;;;5031599;28;20448;-71
2022/05/10 01:38:47;;;;;;;18.00;15.17;;;;;;;;;;5028248;28;20178;-71
2022/05/10 01:41:18;;;;;;;19.80;15.13;;;;;;;;;;5023436;28;20202;-71
2022/05/10 01:43:47;;;;;;;19.52;15.48;;;;;;;;;;5031723;28;20663;-70
2022/05/10 01:46:15;;;;;;;18.27;15.53;;;;;;;;;;5029926;28;20559;-71
2022/05/10 01:48:41;;;;;;;22.53;16.27;;;;;;;;;;5026561;28;20261;-72
2022/05/10 01:51:14;;;;;;;20.47;15.90;;;;;;;;;;5030406;28;20681;-72
2022/05/10 01:53:40;;;;;;;23.80;15.87;;;;;;;;;;5032614;28;20186;-72
2022/05/10 01:56:09;;;;;;;20.97;16.47;;;;;;;;;;5034666;28;20197;-72
2022/05/10 01:58:36;;;;;;;25.37;16.23;;;;;;;;;;5014325;28;20258;-71
2022/05/10 02:01:05;;;;;;;24.90;15.83;;;;;;;;;;5032700;28;20201;-71
2022/05/10 02:03:34;;;;;;;24.13;15.60;;;;;;;;;;5029939;28;20197;-70
2022/05/10 02:06:05;;;;;;;20.90;15.23;;;;;;;;;;5032344;28;20221;-71
2022/05/10 02:08:47;;;;;;;22.60;16.63;;;;;;;;;;5025959;28;20286;-72
2022/05/10 02:11:13;;;;;;;21.40;15.77;;;;;;;;;;5026095;28;20193;-70
2022/05/10 02:13:43;;;;;;;26.27;16.13;;;;;;;;;;5027214;28;20712;-71
2022/05/10 02:16:17;;;;;;;22.00;15.68;;;;;;;;;;5018964;28;20174;-71
2022/05/10 02:19:01;;;;;;;27.30;18.37;;;;;;;;;;5024591;28;20253;-71
2022/05/10 02:21:29;;;;;;;20.80;16.20;;;;;;;;;;5027181;28;20210;-71
2022/05/10 02:23:57;;;;;;;23.10;15.87;;;;;;;;;;5024260;28;20185;-71
2022/05/10 02:26:28;;;;;;;22.50;15.25;;;;;;;;;;5037982;28;20202;-70
2022/05/10 02:28:56;;;;;;;25.33;16.87;;;;;;;;;;5030599;28;20175;-71
2022/05/10 02:31:26;;;;;;;22.33;17.23;;;;;;;;;;5024067;28;20219;-72
2022/05/10 02:33:52;;;;;;;23.35;16.73;;;;;;;;;;5028922;28;20182;-70
2022/05/10 02:36:17;;;;;;;27.85;16.48;;;;;;;;;;5025298;28;20225;-70
2022/05/10 02:38:43;;;;;;;23.02;16.60;;;;;;;;;;5026393;28;20606;-70
2022/05/10 02:41:19;;;;;;;24.23;16.92;;;;;;;;;;5020786;28;20199;-71
2022/05/10 02:43:55;;;;;;;27.83;17.02;;;;;;;;;;5026845;28;20187;-71
2022/05/10 02:46:20;;;;;;;25.90;15.85;;;;;;;;;;5026298;28;20186;-69
2022/05/10 02:48:47;;;;;;;27.63;18.40;;;;;;;;;;5024836;28;20178;-71
2022/05/10 02:51:13;;;;;;;22.98;15.80;;;;;;;;;;5030903;28;20671;-72
2022/05/10 02:53:38;;;;;;;23.73;16.20;;;;;;;;;;5027781;28;20174;-70
2022/05/10 02:56:11;;;;;;;24.33;16.63;;;;;;;;;;5035795;28;20178;-70
2022/05/10 02:58:54;;;;;;;25.95;16.17;;;;;;;;;;5028891;28;20229;-69
2022/05/10 03:01:38;;;;;;;23.33;15.77;;;;;;;;;;5032966;28;20239;-69
2022/05/10 03:04:05;;;;;;;21.83;16.52;;;;;;;;;;5038543;28;20627;-71
2022/05/10 03:06:30;;;;;;;22.55;15.05;;;;;;;;;;5030296;28;20243;-71
2022/05/10 03:08:56;;;;;;;19.77;14.73;;;;;;;;;;5031544;28;20194;-71
2022/05/10 03:11:22;;;;;;;20.63;15.50;;;;;;;;;;5035584;28;20205;-71
2022/05/10 03:13:47;;;;;;;19.45;15.23;;;;;;;;;;5033726;28;20177;-71
2022/05/10 03:16:13;;;;;;;20.70;14.38;;;;;;;;;;5032801;28;20266;-71
2022/05/10 03:18:38;;;;;;;19.25;13.88;;;;;;;;;;5038633;28;20205;-71
2022/05/10 03:21:03;;;;;;;23.65;14.27;;;;;;;;;;5034571;28;20652;-71
2022/05/10 03:23:29;;;;;;;21.85;14.77;;;;;;;;;;5039237;28;20214;-72
2022/05/10 03:25:57;;;;;;;22.73;13.40;;;;;;;;;;5034631;28;20232;-71
2022/05/10 03:28:23;;;;;;;20.52;14.45;;;;;;;;;;5033214;28;20183;-69
2022/05/10 03:30:48;;;;;;;23.60;13.88;;;;;;;;;;5039606;28;20691;-69
2022/05/10 03:33:14;;;;;;;23.40;14.55;;;;;;;;;;5044250;28;20177;-69
2022/05/10 03:35:39;;;;;;;18.35;13.52;;;;;;;;;;5034076;28;20640;-71
2022/05/10 03:38:05;;;;;;;17.90;12.77;;;;;;;;;;5034205;28;20569;-71
2022/05/10 03:40:30;;;;;;;21.60;13.63;;;;;;;;;;5036067;28;20193;-71
2022/05/10 03:42:55;;;;;;;17.30;13.18;;;;;;;;;;5033422;28;20604;-69
2022/05/10 03:45:21;;;;;;;16.70;12.05;;;;;;;;;;5033023;28;20186;-67
2022/05/10 03:47:47;;;;;;;15.85;12.27;;;;;;;;;;5032974;28;20189;-69
2022/05/10 03:50:13;;;;;;;19.88;13.77;;;;;;;;;;5028805;28;20182;-69
2022/05/10 03:52:39;;;;;;;20.45;13.85;;;;;;;;;;5034918;28;20221;-71
2022/05/10 03:55:05;;;;;;;18.08;14.15;;;;;;;;;;5029056;28;20562;-69
2022/05/10 03:57:31;;;;;;;20.17;14.07;;;;;;;;;;5023089;28;20240;-70
2022/05/10 03:59:56;;;;;;;19.10;14.48;;;;;;;;;;5032891;28;20190;-69
2022/05/10 04:02:21;;;;;;;18.57;14.47;;;;;;;;;;5034724;28;20687;-68
2022/05/10 04:04:46;;;;;;;19.73;14.93;;;;;;;;;;5031738;28;20419;-70
2022/05/10 04:07:11;;;;;;;24.98;15.25;;;;;;;;;;5032811;28;20261;-72
2022/05/10 04:09:37;;;;;;;18.63;14.82;;;;;;;;;;5026057;28;20186;-70
2022/05/10 04:12:03;;;;;;;17.95;13.20;;;;;;;;;;5028484;28;20296;-70
2022/05/10 04:14:28;;;;;;;23.60;16.20;;;;;;;;;;5024666;28;20213;-69
2022/05/10 04:16:53;;;;;;;26.10;16.67;;;;;;;;;;5019749;28;20175;-69
2022/05/10 04:19:18;;;;;;;19.95;13.45;;;;;;;;;;5023620;28;20240;-69
2022/05/10 04:21:43;;;;;;;19.55;14.48;;;;;;;;;;5027616;28;20652;-70
2022/05/10 04:24:09;;;;;;;17.40;14.33;;;;;;;;;;5026707;28;20183;-68
2022/05/10 04:26:34;;;;;;;21.52;15.32;;;;;;;;;;5030998;28;20420;-69
2022/05/10 04:29:00;;;;;;;18.38;14.07;;;;;;;;;;5016166;28;20185;-70
2022/05/10 04:31:26;;;;;;;26.02;15.35;;;;;;;;;;5012612;28;20236;-69
2022/05/10 04:33:51;;;;;;;19.23;13.70;;;;;;;;;;5012287;28;20171;-70
2022/05/10 04:36:16;;;;;;;19.50;14.25;;;;;;;;;;5034784;28;20252;-70
2022/05/10 04:38:44;;;;;;;17.70;13.73;;;;;;;;;;5030609;28;20188;-69
2022/05/10 04:41:25;;;;;;;18.50;13.15;;;;;;;;;;5027091;28;20220;-69
2022/05/10 04:43:51;;;;;;;20.30;14.52;;;;;;;;;;5025421;28;20652;-70
2022/05/10 04:46:16;;;;;;;19.52;13.98;;;;;;;;;;5026354;28;20261;-70
2022/05/10 04:48:41;;;;;;;20.10;13.43;;;;;;;;;;5023478;28;20183;-70
2022/05/10 04:51:07;;;;;;;19.02;13.82;;;;;;;;;;5029848;28;20277;-70
2022/05/10 04:53:32;;;;;;;16.80;12.90;;;;;;;;;;5029833;28;20169;-70
2022/05/10 04:55:58;;;;;;;19.60;14.20;;;;;;;;;;5021772;28;20554;-70
2022/05/10 04:58:23;;;;;;;21.65;14.10;;;;;;;;;;5033392;28;20190;-70
2022/05/10 05:00:48;;;;;;;18.92;14.20;;;;;;;;;;5024796;28;20205;-70
2022/05/10 05:03:13;;;;;;;22.93;14.77;;;;;;;;;;5031115;28;20565;-69
2022/05/10 05:05:38;;;;;;;21.65;14.13;;;;;;;;;;5027378;28;20443;-70
2022/05/10 05:08:04;;;;;;;17.77;13.65;;;;;;;;;;5023036;28;20174;-70
2022/05/10 05:10:29;;;;;;;18.52;13.50;;;;;;;;;;5026900;28;20671;-70
2022/05/10 05:12:54;;;;;;;17.70;12.65;;;;;;;;;;5029720;28;20273;-71
2022/05/10 05:15:19;;;;;;;16.90;12.75;;;;;;;;;;5014216;28;20240;-69
2022/05/10 05:17:44;;;;;;;20.80;13.38;;;;;;;;;;5010262;28;20670;-70
2022/05/10 05:20:10;;;;;;;18.88;13.32;;;;;;;;;;5025912;28;20647;-71
2022/05/10 05:22:36;;;;;;;20.33;12.32;;;;;;;;;;5019683;28;20237;-71
2022/05/10 05:25:01;;;;;;;16.13;11.65;;;;;;;;;;5024825;28;20178;-70
2022/05/10 05:27:27;;;;;;;15.88;12.00;;;;;;;;;;5029264;28;20194;-69
2022/05/10 05:29:52;;;;;;;17.90;13.07;;;;;;;;;;5025663;28;20181;-69
2022/05/10 05:32:20;;;;;;;15.27;11.73;;;;;;;;;;5032264;28;20297;-69
2022/05/10 05:34:45;;;;;;;13.45;11.20;;;;;;;;;;5023953;28;20178;-70
2022/05/10 05:39:54;;;;;;;14.82;11.50;;;;;;;;;;5029853;28;20434;-69
2022/05/10 05:42:19;;;;;;;16.73;11.23;;;;;;;;;;5020297;28;20214;-70
2022/05/10 05:44:45;;;;;;;17.73;12.40;;;;;;;;;;5028068;28;20424;-69
2022/05/10 05:47:10;;;;;;;16.30;10.80;;;;;;;;;;5017592;28;20194;-70
2022/05/10 05:49:36;;;;;;;15.38;11.20;;;;;;;;;;5023168;28;20183;-69
2022/05/10 05:52:02;;;;;;;13.38;10.95;;;;;;;;;;5025405;28;21129;-70
2022/05/10 05:54:27;;;;;;;14.98;11.90;;;;;;;;;;5033290;28;20179;-69
2022/05/10 05:57:19;;;;;;;19.67;12.07;;;;;;;;;;5015906;28;20178;-69
2022/05/10 05:59:44;;;;;;;21.60;12.35;;;;;;;;;;5027231;28;20186;-70
2022/05/10 06:02:11;;;;;;;14.73;11.02;;;;;;;;;;5020715;28;20237;-70
2022/05/10 06:04:36;;;;;;;15.80;10.57;;;;;;;;;;5023065;28;20256;-69
2022/05/10 06:07:02;;;;;;;20.80;12.32;;;;;;;;;;5020061;28;20258;-70
2022/05/10 06:09:27;;;;;;;18.88;11.75;;;;;;;;;;5010359;28;20198;-70
2022/05/10 06:11:52;;;;;;;18.95;11.70;;;;;;;;;;5013241;28;20218;-68
2022/05/10 06:14:18;;;;;;;18.47;11.33;;;;;;;;;;5009839;28;20187;-69
2022/05/10 06:16:43;;;;;;;18.20;12.15;;;;;;;;;;5019541;28;20523;-70
2022/05/10 06:19:09;;;;;;;14.95;10.75;;;;;;;;;;5028545;28;20186;-70
2022/05/10 06:21:34;;;;;;;14.73;11.65;;;;;;;;;;5012195;28;20886;-69
2022/05/10 06:24:00;;;;;;;15.95;11.90;;;;;;;;;;5021996;28;20195;-69
2022/05/10 06:26:25;;;;;;;17.27;11.50;;;;;;;;;;5035315;28;20175;-69
2022/05/10 06:28:50;;;;;;;16.70;10.67;;;;;;;;;;5021705;28;20221;-69
2022/05/10 06:31:16;;;;;;;17.17;10.80;;;;;;;;;;5024052;28;20462;-71
2022/05/10 06:33:41;;;;;;;17.50;11.17;;;;;;;;;;5012737;28;20467;-71
2022/05/10 06:36:06;;;;;;;18.13;10.80;;;;;;;;;;5016386;28;20801;-71
2022/05/10 06:38:31;;;;;;;14.68;10.82;;;;;;;;;;5007802;28;20512;-71
2022/05/10 06:41:00;;;;;;;17.48;10.70;;;;;;;;;;5013468;28;20289;-71
2022/05/10 06:43:25;;;;;;;15.75;10.98;;;;;;;;;;5014901;28;20198;-70
2022/05/10 06:45:50;;;;;;;15.43;9.48;;;;;;;;;;5014655;28;20259;-70
2022/05/10 06:48:16;;;;;;;16.63;10.90;;;;;;;;;;5012148;28;20262;-70
2022/05/10 06:50:42;;;;;;;17.17;10.77;;;;;;;;;;5018245;28;20778;-71
2022/05/10 06:53:08;;;;;;;16.38;11.15;;;;;;;;;;5014220;28;20183;-70
2022/05/10 06:55:34;;;;;;;18.35;11.70;;;;;;;;;;5021112;28;20186;-70
2022/05/10 06:58:02;;;;;;;15.98;10.20;;;;;;;;;;5021241;28;20187;-71
2022/05/10 07:00:28;;;;;;;14.65;10.13;;;;;;;;;;5021685;28;20189;-70
2022/05/10 07:02:53;;;;;;;13.00;9.45;;;;;;;;;;5012031;28;20202;-71
2022/05/10 07:05:19;;;;;;;15.00;10.52;;;;;;;;;;5013695;28;20232;-70
2022/05/10 07:07:45;;;;;;;15.13;10.55;;;;;;;;;;5011893;28;20179;-71
2022/05/10 07:10:11;;;;;;;15.57;10.20;;;;;;;;;;5015277;28;20280;-70
2022/05/10 07:12:37;;;;;;;12.23;8.90;;;;;;;;;;5015441;28;20679;-70
2022/05/10 07:15:03;;;;;;;14.73;9.77;;;;;;;;;;5020378;28;20199;-71
2022/05/10 07:17:28;;;;;;;11.98;9.75;;;;;;;;;;5012187;28;20190;-70
2022/05/10 07:19:53;;;;;;;14.60;10.50;;;;;;;;;;5016719;28;20195;-71
2022/05/10 07:22:19;;;;;;;17.17;10.35;;;;;;;;;;5015341;28;20951;-71
2022/05/10 07:24:44;;;;;;;12.48;9.82;;;;;;;;;;5012801;28;20299;-71
2022/05/10 07:27:09;;;;;;;12.33;9.73;;;;;;;;;;5015717;28;20179;-71
2022/05/10 07:29:34;;;;;;;13.82;10.20;;;;;;;;;;5026638;28;20427;-70
2022/05/10 07:32:00;;;;;;;12.95;10.00;;;;;;;;;;5017972;28;20234;-70
2022/05/10 07:34:25;;;;;;;16.90;10.25;;;;;;;;;;5012030;28;20270;-71
2022/05/10 07:36:50;;;;;;;16.50;11.63;;;;;;;;;;5014174;28;20210;-71
2022/05/10 07:39:16;;;;;;;14.02;9.85;;;;;;;;;;5015593;28;20934;-71
2022/05/10 07:41:41;;;;;;;14.63;10.63;;;;;;;;;;5020277;28;20210;-70
2022/05/10 07:44:07;;;;;;;11.57;10.38;;;;;;;;;;5014268;28;20269;-70
2022/05/10 07:46:32;;;;;;;13.13;10.52;;;;;;;;;;5017376;28;20182;-71
2022/05/10 07:48:57;;;;;;;13.85;11.15;;;;;;;;;;5018371;28;20183;-70
2022/05/10 07:51:23;;;;;;;13.77;11.90;;;;;;;;;;5017610;28;20206;-71
2022/05/10 07:53:48;;;;;;;15.18;11.23;;;;;;;;;;5017871;28;20461;-70
2022/05/10 07:56:13;;;;;;;14.02;10.65;;;;;;;;;;5018739;28;20232;-70
2022/05/10 07:58:39;;;;;;;13.45;11.10;;;;;;;;;;5017410;28;20179;-71
2022/05/10 08:01:04;;;;;;;16.77;11.13;;;;;;;;;;5024024;28;20213;-70
2022/05/10 08:03:29;;;;;;;11.73;10.48;;;;;;;;;;5020430;28;20213;-70
2022/05/10 08:05:55;;;;;;;11.10;9.93;;;;;;;;;;5020738;28;20645;-70
2022/05/10 08:08:20;;;;;;;13.02;10.40;;;;;;;;;;5017415;28;20548;-71
2022/05/10 08:10:47;;;;;;;13.55;10.52;;;;;;;;;;5027284;28;20244;-71
2022/05/10 08:13:13;;;;;;;12.60;10.73;;;;;;;;;;5020959;28;20545;-71
2022/05/10 08:15:38;;;;;;;13.70;10.15;;;;;;;;;;5023186;28;20187;-70
2022/05/10 08:18:04;;;;;;;12.80;9.52;;;;;;;;;;5019151;28;20198;-70
2022/05/10 08:20:29;;;;;;;11.45;9.68;;;;;;;;;;5025911;28;20196;-70
2022/05/10 08:22:54;;;;;;;11.38;9.20;;;;;;;;;;5017631;28;20238;-71
2022/05/10 08:25:19;;;;;;;11.45;8.95;;;;;;;;;;5018628;28;20185;-70
2022/05/10 08:27:45;;;;;;;11.45;8.85;;;;;;;;;;5018703;28;20311;-71
2022/05/10 08:30:10;;;;;;;11.43;7.97;;;;;;;;;;5020627;28;20640;-70
2022/05/10 08:32:35;;;;;;;11.27;8.30;;;;;;;;;;5019464;28;20451;-70
2022/05/10 08:35:00;;;;;;;10.20;7.25;;;;;;;;;;5011098;28;20269;-68
2022/05/10 08:37:25;;;;;;;11.10;7.20;;;;;;;;;;5016070;28;20239;-70
2022/05/10 08:39:51;;;;;;;8.90;7.23;;;;;;;;;;5025862;28;20523;-71
2022/05/10 08:42:22;;;;;;;15.27;8.32;;;;;;;;;;5020747;28;20468;-70
2022/05/10 08:44:51;;;;;;;11.35;8.07;;;;;;;;;;5015693;28;20174;-70
2022/05/10 08:47:17;;;;;;;9.38;7.35;;;;;;;;;;5016538;28;20210;-70
2022/05/10 08:49:51;;;;;;;9.80;7.67;;;;;;;;;;5024891;28;21248;-70
2022/05/10 08:52:16;;;;;;;10.85;6.72;;;;;;;;;;5017744;28;20980;-70
2022/05/10 08:54:42;;;;;;;10.48;6.75;;;;;;;;;;5015802;28;20179;-70
2022/05/10 08:57:17;;;;;;;8.50;6.78;;;;;;;;;;5018733;28;20174;-70
2022/05/10 09:00:03;;;;;;;11.70;7.53;;;;;;;;;;5012527;28;20178;-70
2022/05/10 09:02:46;;;;;;;9.93;6.90;;;;;;;;;;5012546;28;20754;-70
2022/05/10 09:05:11;;;;;;;8.55;7.05;;;;;;;;;;5014442;28;20186;-70
2022/05/10 09:07:40;;;;;;;10.50;7.28;;;;;;;;;;5020253;28;20975;-71
2022/05/10 09:10:20;;;;;;;8.38;6.95;;;;;;;;;;5019923;28;20194;-70
2022/05/10 09:12:49;;;;;;;8.52;6.88;;;;;;;;;;5024674;28;20178;-69
2022/05/10 09:15:14;;;;;;;9.60;7.10;;;;;;;;;;5018264;28;20248;-70
2022/05/10 09:17:40;;;;;;;10.95;6.47;;;;;;;;;;5013974;28;20671;-70
2022/05/10 09:20:06;;;;;;;10.77;6.88;;;;;;;;;;5018856;28;20648;-70
2022/05/10 09:22:50;;;;;;;10.93;6.60;;;;;;;;;;5014565;28;20236;-70
2022/05/10 09:25:24;;;;;;;11.80;6.80;;;;;;;;;;5015865;28;20190;-70
2022/05/10 09:27:50;;;;;;;14.02;8.13;;;;;;;;;;5017397;28;20637;-70
2022/05/10 09:30:30;;;;;;;9.02;6.72;;;;;;;;;;5024421;28;20186;-71
2022/05/10 09:35:58;;;;;;;8.95;7.63;;;;;;;;;;5025455;28;20194;-69
2022/05/10 09:38:23;;;;;;;8.67;6.93;;;;;;;;;;5020893;28;20178;-70
2022/05/10 09:40:49;;;;;;;8.83;6.57;;;;;;;;;;5018565;28;20206;-70
2022/05/10 09:43:26;;;;;;;8.98;6.95;;;;;;;;;;5025621;28;20843;-70
2022/05/10 09:46:07;;;;;;;8.80;6.63;;;;;;;;;;5019882;28;20181;-69
2022/05/10 09:48:32;;;;;;;9.75;7.32;;;;;;;;;;5017698;28;20174;-69
2022/05/10 09:50:58;;;;;;;13.57;6.73;;;;;;;;;;5014933;28;20215;-70
2022/05/10 09:53:31;;;;;;;11.57;6.68;;;;;;;;;;5030399;28;20815;-69
2022/05/10 09:55:57;;;;;;;7.82;6.05;;;;;;;;;;5014342;28;20468;-69
2022/05/10 09:58:27;;;;;;;9.80;5.95;;;;;;;;;;5015448;28;20182;-70
2022/05/10 10:00:53;;;;;;;8.65;6.13;;;;;;;;;;5014171;28;20205;-70
2022/05/10 10:03:29;;;;;;;7.03;5.47;;;;;;;;;;5015349;28;20199;-69
2022/05/10 10:05:56;;;;;;;8.35;4.53;;;;;;;;;;5021951;28;20183;-69
2022/05/10 10:08:40;;;;;;;6.47;4.53;;;;;;;;;;5015368;28;20237;-70
2022/05/10 10:11:24;;;;;;;6.78;3.80;;;;;;;;;;5014504;28;20225;-69
2022/05/10 10:13:50;;;;;;;8.82;4.05;;;;;;;;;;5017761;28;20269;-69
2022/05/10 10:16:18;;;;;;;7.72;3.95;;;;;;;;;;5018756;28;20183;-69
2022/05/10 10:18:44;;;;;;;8.07;3.72;;;;;;;;;;5028459;28;20183;-69
2022/05/10 10:21:11;;;;;;;7.57;3.90;;;;;;;;;;5017316;28;20213;-70
2022/05/10 10:23:43;;;;;;;7.13;3.42;;;;;;;;;;5015199;28;20683;-70
2022/05/10 10:26:16;;;;;;;8.25;3.35;;;;;;;;;;5019027;28;20246;-69
2022/05/10 10:28:53;;;;;;;4.28;2.47;;;;;;;;;;5017137;28;20639;-69
2022/05/10 10:31:22;;;;;;;8.70;2.95;;;;;;;;;;5023127;28;20687;-70
2022/05/10 10:33:51;;;;;;;8.60;2.78;;;;;;;;;;5024939;28;20744;-70
2022/05/10 10:36:18;;;;;;;5.35;3.10;;;;;;;;;;5026254;28;20210;-69
2022/05/10 10:38:50;;;;;;;4.45;3.00;;;;;;;;;;5015012;28;20258;-69
2022/05/10 10:41:21;;;;;;;4.38;3.47;;;;;;;;;;5014200;28;20199;-70
2022/05/10 10:43:49;;;;;;;7.30;3.80;;;;;;;;;;5012226;28;20233;-70
2022/05/10 10:46:25;;;;;;;8.45;3.97;;;;;;;;;;5015557;28;20526;-70
2022/05/10 10:48:55;;;;;;;7.40;3.83;;;;;;;;;;5013770;28;20188;-68
2022/05/10 10:51:23;;;;;;;7.85;4.18;;;;;;;;;;5016044;28;20198;-70
2022/05/10 10:53:48;;;;;;;4.57;3.83;;;;;;;;;;5027822;28;20247;-69
2022/05/10 10:56:16;;;;;;;5.73;4.30;;;;;;;;;;5017073;28;20183;-69
2022/05/10 10:58:59;;;;;;;7.93;4.53;;;;;;;;;;5012032;28;20451;-69
2022/05/10 11:01:50;;;;;;;9.68;4.68;;;;;;;;;;5013672;28;20201;-69
2022/05/10 11:04:34;;;;;;;5.78;3.80;;;;;;;;;;5008121;28;20171;-69
2022/05/10 11:07:03;;;;;;;7.55;4.10;;;;;;;;;;5015506;28;20189;-68
2022/05/10 11:09:42;;;;;;;6.80;3.33;;;;;;;;;;5013104;28;20198;-69
2022/05/10 11:12:15;;;;;;;9.18;5.43;;;;;;;;;;5014172;28;20285;-68
2022/05/10 11:14:52;;;;;;;4.40;4.00;;;;;;;;;;5020399;28;20187;-69
2022/05/10 11:17:35;;;;;;;6.80;3.92;;;;;;;;;;5018833;28;21919;-69
2022/05/10 11:20:04;;;;;;;6.57;4.50;;;;;;;;;;5015353;28;20220;-69
2022/05/10 11:22:33;;;;;;;7.30;4.15;;;;;;;;;;5022468;28;20213;-69
2022/05/10 11:24:58;;;;;;;7.95;4.38;;;;;;;;;;5019690;28;20179;-69
2022/05/10 11:27:39;;;;;;;7.70;4.18;;;;;;;;;;5019881;28;20644;-69
2022/05/10 11:30:04;;;;;;;7.70;4.40;;;;;;;;;;5023251;28;20283;-70
2022/05/10 11:32:32;;;;;;;13.07;5.40;;;;;;;;;;5015854;28;20236;-69
2022/05/10 11:35:05;;;;;;;7.03;5.07;;;;;;;;;;5019744;28;20185;-69
2022/05/10 11:37:35;;;;;;;7.15;4.68;;;;;;;;;;5018410;28;20316;-69
2022/05/10 11:40:27;;;;;;;7.80;4.35;;;;;;;;;;5017060;28;20171;-69
2022/05/10 11:43:01;;;;;;;8.68;5.18;;;;;;;;;;5014426;28;20225;-69
2022/05/10 11:45:29;;;;;;;7.70;4.43;;;;;;;;;;5015913;28;20189;-70
2022/05/10 11:48:00;;;;;;;9.30;4.50;;;;;;;;;;5028138;28;20175;-69
2022/05/10 11:51:38;;;;;;;7.80;5.05;;;;;;;;;;5015611;28;20261;-69
2022/05/10 11:53:45;;;;;;;9.10;4.30;;;;;;;;;;5022026;28;20568;-69
2022/05/10 11:56:11;;;;;;;5.82;4.85;;;;;;;;;;5021107;28;20571;-69
2022/05/10 11:58:37;;;;;;;8.00;4.80;;;;;;;;;;5013829;28;20190;-69
2022/05/10 12:01:04;;;;;;;6.40;5.18;;;;;;;;;;5017447;28;20206;-69
2022/05/10 12:03:35;;;;;;;8.60;5.22;;;;;;;;;;5025982;28;20209;-70
2022/05/10 12:06:19;;;;;;;6.75;5.80;;;;;;;;;;5024542;28;20209;-69
2022/05/10 12:08:44;;;;;;;8.38;5.53;;;;;;;;;;5014938;28;20201;-69
2022/05/10 12:11:27;;;;;;;10.37;5.90;;;;;;;;;;5028019;28;20210;-69
2022/05/10 12:22:14;;;;;;;9.98;6.25;;;;;;;;;;5022680;28;20280;-69
2022/05/10 12:24:44;;;;;;;10.00;6.10;;;;;;;;;;5021074;28;20252;-70
2022/05/10 12:27:12;;;;;;;14.52;6.15;;;;;;;;;;5018948;28;20187;-70
2022/05/10 12:29:37;;;;;;;9.18;6.25;;;;;;;;;;5015689;28;20178;-69
2022/05/10 12:32:06;;;;;;;9.25;6.10;;;;;;;;;;5016677;28;20210;-69
2022/05/10 12:34:54;;;;;;;8.45;6.43;;;;;;;;;;5013199;28;20194;-69
2022/05/10 12:37:31;;;;;;;8.02;6.75;;;;;;;;;;5014023;28;20706;-69
2022/05/10 12:40:03;;;;;;;10.25;6.60;;;;;;;;;;5016144;28;20200;-69
2022/05/10 12:42:38;;;;;;;7.35;6.65;;;;;;;;;;5020475;28;20241;-69
2022/05/10 12:45:18;;;;;;;8.70;7.25;;;;;;;;;;5021653;28;20186;-68
2022/05/10 12:47:53;;;;;;;10.63;7.45;;;;;;;;;;5014551;28;20629;-69
2022/05/10 12:50:21;;;;;;;7.88;6.85;;;;;;;;;;5020572;28;20254;-69
2022/05/10 12:52:49;;;;;;;7.72;6.32;;;;;;;;;;5025115;28;20178;-68
2022/05/10 12:55:22;;;;;;;5.65;5.05;;;;;;;;;;5017501;28;20190;-68
2022/05/10 12:57:56;;;;;;;9.88;5.95;;;;;;;;;;5011864;28;20692;-69
2022/05/10 13:00:24;;;;;;;8.75;5.68;;;;;;;;;;5016524;28;20193;-69
2022/05/10 13:02:54;;;;;;;6.30;5.35;;;;;;;;;;5019012;28;20202;-69
2022/05/10 13:05:29;;;;;;;7.43;4.75;;;;;;;;;;5019813;28;20191;-69
2022/05/10 13:08:01;;;;;;;10.45;5.30;;;;;;;;;;5023353;28;20166;-69
2022/05/10 13:10:28;;;;;;;8.35;5.00;;;;;;;;;;5020997;28;20248;-70
2022/05/10 13:12:57;;;;;;;8.18;4.72;;;;;;;;;;5014531;28;20182;-70
2022/05/10 13:15:23;;;;;;;7.93;5.72;;;;;;;;;;5017283;28;20713;-69
2022/05/10 13:17:52;;;;;;;5.90;4.75;;;;;;;;;;5020779;28;20186;-70
2022/05/10 13:20:21;;;;;;;8.25;4.75;;;;;;;;;;5027583;28;20253;-70
2022/05/10 13:22:48;;;;;;;5.40;4.50;;;;;;;;;;5021841;28;20949;-70
2022/05/10 13:25:13;;;;;;;6.03;3.95;;;;;;;;;;5018338;28;20266;-69
2022/05/10 13:27:41;;;;;;;5.68;4.07;;;;;;;;;;5016819;28;20925;-69
2022/05/10 13:30:11;;;;;;;5.80;3.97;;;;;;;;;;5028992;28;20186;-69
2022/05/10 13:32:40;;;;;;;5.82;4.20;;;;;;;;;;5017999;28;20216;-69
2022/05/10 13:35:05;;;;;;;6.95;3.90;;;;;;;;;;5016703;28;20556;-70
2022/05/10 13:37:32;;;;;;;8.45;3.80;;;;;;;;;;5016850;28;20182;-69
2022/05/10 13:39:59;;;;;;;6.13;3.53;;;;;;;;;;5016500;28;20183;-70
2022/05/10 13:42:24;;;;;;;4.93;3.53;;;;;;;;;;5023956;28;20229;-69
2022/05/10 13:44:49;;;;;;;5.67;3.03;;;;;;;;;;5017224;28;20305;-68
2022/05/10 13:47:30;;;;;;;8.70;3.38;;;;;;;;;;5021061;28;20419;-68
2022/05/10 13:49:55;;;;;;;3.95;2.80;;;;;;;;;;5012771;28;20178;-69
2022/05/10 13:52:32;;;;;;;4.93;2.92;;;;;;;;;;5015768;28;20207;-68
2022/05/10 13:54:59;;;;;;;6.05;2.83;;;;;;;;;;5015723;28;20266;-68
2022/05/10 13:57:26;;;;;;;7.97;2.65;;;;;;;;;;5014943;28;20723;-68
2022/05/10 13:59:52;;;;;;;4.05;2.70;;;;;;;;;;5015713;28;20183;-69
2022/05/10 14:02:17;;;;;;;5.72;2.42;;;;;;;;;;5013809;28;20568;-69
2022/05/10 14:04:46;;;;;;;4.30;2.28;;;;;;;;;;5013153;28;20183;-69
2022/05/10 14:07:13;;;;;;;4.80;1.88;;;;;;;;;;5014789;28;20566;-69
2022/05/10 14:09:40;;;;;;;3.58;1.98;;;;;;;;;;5013648;28;20201;-69
2022/05/10 14:12:20;;;;;;;3.30;1.90;;;;;;;;;;5020285;28;20234;-69
2022/05/10 14:14:47;;;;;;;5.85;1.85;;;;;;;;;;5021234;28;20206;-69
2022/05/10 14:17:12;;;;;;;4.70;1.80;;;;;;;;;;5023431;28;20588;-69
2022/05/10 14:19:41;;;;;;;9.25;1.83;;;;;;;;;;5019528;28;20450;-70
2022/05/10 14:22:18;;;;;;;3.05;1.70;;;;;;;;;;5012308;28;20215;-69
2022/05/10 14:24:45;;;;;;;9.02;2.40;;;;;;;;;;5014672;28;20292;-69
2022/05/10 14:27:15;;;;;;;6.82;1.48;;;;;;;;;;5013823;28;20214;-69
2022/05/10 14:29:43;;;;;;;3.40;1.30;;;;;;;;;;5012481;28;20186;-69
2022/05/10 14:32:11;;;;;;;6.25;1.52;;;;;;;;;;5013171;28;20195;-70
2022/05/10 14:34:54;;;;;;;3.53;1.48;;;;;;;;;;5014850;28;20557;-71
2022/05/10 14:37:57;;;;;;;3.15;1.40;;;;;;;;;;5012641;28;20317;-71
2022/05/10 14:40:26;;;;;;;7.10;1.63;;;;;;;;;;5030218;28;22143;-69
2022/05/10 14:42:53;;;;;;;2.92;1.27;;;;;;;;;;5019619;28;20226;-69
2022/05/10 14:45:34;;;;;;;5.18;1.70;;;;;;;;;;5016712;28;20178;-68
2022/05/10 14:48:00;;;;;;;5.57;1.50;;;;;;;;;;5010644;28;20274;-71
2022/05/10 14:50:30;;;;;;;3.63;0.93;;;;;;;;;;5013872;28;20728;-71
2022/05/10 14:53:08;;;;;;;2.25;1.08;;;;;;;;;;5011971;28;20178;-71